createdAt,value
2023-01-13T00:00:06.000Z,96537
2023-01-13T00:05:06.000Z,96535
2023-01-13T00:10:06.000Z,96537
2023-01-13T00:15:06.000Z,96531
2023-01-13T00:20:06.000Z,96520
2023-01-13T00:25:06.000Z,96509
2023-01-13T00:30:06.000Z,96508
2023-01-13T00:35:06.000Z,96518
2023-01-13T00:40:06.000Z,96528
2023-01-13T00:45:06.000Z,96504
2023-01-13T00:50:06.000Z,96523
2023-01-13T00:55:06.000Z,96525
2023-01-13T01:00:06.000Z,96513
2023-01-13T01:05:06.000Z,96508
2023-01-13T01:10:06.000Z,96512
2023-01-13T01:15:06.000Z,96504
2023-01-13T01:20:06.000Z,96494
2023-01-13T01:25:06.000Z,96496
2023-01-13T01:30:06.000Z,96510
2023-01-13T01:35:06.000Z,96508
2023-01-13T01:40:06.000Z,96515
2023-01-13T01:45:06.000Z,96500
2023-01-13T01:50:06.000Z,96500
2023-01-13T01:55:06.000Z,96500
2023-01-13T02:00:06.000Z,96508
2023-01-13T02:05:06.000Z,96510
2023-01-13T02:10:06.000Z,96502
2023-01-13T02:15:06.000Z,96494
2023-01-13T02:20:06.000Z,96495
2023-01-13T02:25:06.000Z,96485
2023-01-13T02:30:06.000Z,96469
2023-01-13T02:35:06.000Z,96469
2023-01-13T02:40:06.000Z,96477
2023-01-13T02:45:06.000Z,96470
2023-01-13T02:50:06.000Z,96465
2023-01-13T02:55:06.000Z,96475
2023-01-13T03:00:06.000Z,96472
2023-01-13T03:05:06.000Z,96468
2023-01-13T03:10:06.000Z,96477
2023-01-13T03:15:06.000Z,96470
2023-01-13T03:20:06.000Z,96469
2023-01-13T03:25:06.000Z,96450
2023-01-13T03:30:06.000Z,96459
2023-01-13T03:35:06.000Z,96464
2023-01-13T03:40:06.000Z,96456
2023-01-13T03:45:06.000Z,96448
2023-01-13T03:50:06.000Z,96447
2023-01-13T03:55:06.000Z,96447
2023-01-13T04:00:06.000Z,96444
2023-01-13T04:05:06.000Z,96438
2023-01-13T04:10:06.000Z,96422
2023-01-13T04:15:06.000Z,96437
2023-01-13T04:20:06.000Z,96434
2023-01-13T04:25:06.000Z,96439
2023-01-13T04:30:06.000Z,96444
2023-01-13T04:35:06.000Z,96449
2023-01-13T04:40:06.000Z,96444
2023-01-13T04:45:06.000Z,96434
2023-01-13T04:50:06.000Z,96434
2023-01-13T04:55:06.000Z,96423
2023-01-13T05:00:06.000Z,96440
2023-01-13T05:05:06.000Z,96423
2023-01-13T05:10:06.000Z,96433
2023-01-13T05:15:06.000Z,96436
2023-01-13T05:20:06.000Z,96423
2023-01-13T05:25:06.000Z,96436
2023-01-13T05:30:06.000Z,96426
2023-01-13T05:35:06.000Z,96427
2023-01-13T05:40:06.000Z,96430
2023-01-13T05:45:06.000Z,96436
2023-01-13T05:50:07.000Z,96435
2023-01-13T05:55:07.000Z,96440
2023-01-13T06:00:07.000Z,96444
2023-01-13T06:05:07.000Z,96438
2023-01-13T06:10:07.000Z,96434
2023-01-13T06:15:07.000Z,96450
2023-01-13T06:20:07.000Z,96449
2023-01-13T06:25:07.000Z,96469
2023-01-13T06:30:07.000Z,96454
2023-01-13T06:35:07.000Z,96441
2023-01-13T06:40:07.000Z,96444
2023-01-13T06:45:07.000Z,96448
2023-01-13T06:50:07.000Z,96435
2023-01-13T06:55:07.000Z,96455
2023-01-13T07:00:07.000Z,96453
2023-01-13T07:05:07.000Z,96449
2023-01-13T07:10:07.000Z,96451
2023-01-13T07:15:07.000Z,96459
2023-01-13T07:20:07.000Z,96455
2023-01-13T07:25:07.000Z,96458
2023-01-13T07:30:07.000Z,96456
2023-01-13T07:35:07.000Z,96463
2023-01-13T07:40:07.000Z,96469
2023-01-13T07:45:07.000Z,96468
2023-01-13T07:49:52.000Z,96481
2023-01-13T07:55:07.000Z,96481
2023-01-13T08:00:07.000Z,96475
2023-01-13T08:04:52.000Z,96486
2023-01-13T08:09:52.000Z,96488
2023-01-13T08:15:07.000Z,96510
2023-01-13T08:20:07.000Z,96506
2023-01-13T08:25:07.000Z,96510
2023-01-13T08:30:07.000Z,96518
2023-01-13T08:34:52.000Z,96515
2023-01-13T08:40:07.000Z,96525
2023-01-13T08:45:07.000Z,96521
2023-01-13T08:50:07.000Z,96511
2023-01-13T08:55:07.000Z,96512
2023-01-13T09:00:07.000Z,96523
2023-01-13T09:04:52.000Z,96556
2023-01-13T09:10:07.000Z,96554
2023-01-13T09:15:07.000Z,96551
2023-01-13T09:20:07.000Z,96563
2023-01-13T09:25:07.000Z,96564
2023-01-13T09:30:07.000Z,96578
2023-01-13T09:34:52.000Z,96570
2023-01-13T09:40:07.000Z,96568
2023-01-13T09:45:07.000Z,96570
2023-01-13T09:50:07.000Z,96578
2023-01-13T09:55:07.000Z,96578
2023-01-13T10:00:07.000Z,96581
2023-01-13T10:05:07.000Z,96582
2023-01-13T10:10:07.000Z,96578
2023-01-13T10:15:07.000Z,96573
2023-01-13T10:20:07.000Z,96581
2023-01-13T10:25:07.000Z,96585
2023-01-13T10:29:52.000Z,96597
2023-01-13T10:35:07.000Z,96586
2023-01-13T10:40:07.000Z,96591
2023-01-13T10:45:07.000Z,96585
2023-01-13T10:50:07.000Z,96590
2023-01-13T10:55:07.000Z,96602
2023-01-13T11:00:07.000Z,96592
2023-01-13T11:05:07.000Z,96606
2023-01-13T11:10:07.000Z,96612
2023-01-13T11:15:07.000Z,96606
2023-01-13T11:20:07.000Z,96607
2023-01-13T11:25:07.000Z,96617
2023-01-13T11:30:07.000Z,96609
2023-01-13T11:35:07.000Z,96610
2023-01-13T11:40:07.000Z,96620
2023-01-13T11:45:07.000Z,96608
2023-01-13T11:50:07.000Z,96620
2023-01-13T11:55:07.000Z,96617
2023-01-13T12:00:07.000Z,96621
2023-01-13T12:05:07.000Z,96628
2023-01-13T12:10:07.000Z,96614
2023-01-13T12:15:07.000Z,96607
2023-01-13T12:20:07.000Z,96610
2023-01-13T12:24:52.000Z,96610
2023-01-13T12:30:07.000Z,96595
2023-01-13T12:35:07.000Z,96601
2023-01-13T12:40:07.000Z,96605
2023-01-13T12:45:07.000Z,96587
2023-01-13T12:50:07.000Z,96590
2023-01-13T12:55:07.000Z,96611
2023-01-13T13:00:07.000Z,96615
2023-01-13T13:05:07.000Z,96603
2023-01-13T13:10:07.000Z,96604
2023-01-13T13:15:07.000Z,96602
2023-01-13T13:20:07.000Z,96616
2023-01-13T13:24:52.000Z,96625
2023-01-13T13:29:52.000Z,96610
2023-01-13T13:35:07.000Z,96595
2023-01-13T13:40:07.000Z,96596
2023-01-13T13:45:07.000Z,96621
2023-01-13T13:49:52.000Z,96616
2023-01-13T13:54:52.000Z,96607
2023-01-13T14:00:07.000Z,96622
2023-01-13T14:05:07.000Z,96619
2023-01-13T14:10:07.000Z,96612
2023-01-13T14:15:07.000Z,96625
2023-01-13T14:20:07.000Z,96628
2023-01-13T14:25:07.000Z,96621
2023-01-13T14:30:07.000Z,96631
2023-01-13T14:35:07.000Z,96643
2023-01-13T14:40:07.000Z,96647
2023-01-13T14:44:52.000Z,96656
2023-01-13T14:49:52.000Z,96672
2023-01-13T14:54:52.000Z,96678
2023-01-13T15:00:07.000Z,96679
2023-01-13T15:05:07.000Z,96681
2023-01-13T15:10:07.000Z,96691
2023-01-13T15:14:52.000Z,96693
2023-01-13T15:19:52.000Z,96697
2023-01-13T15:25:07.000Z,96697
2023-01-13T15:29:52.000Z,96715
2023-01-13T15:35:07.000Z,96730
2023-01-13T15:40:07.000Z,96724
2023-01-13T15:44:52.000Z,96727
2023-01-13T15:49:52.000Z,96722
2023-01-13T15:55:07.000Z,96734
2023-01-13T15:59:52.000Z,96741
2023-01-13T16:05:07.000Z,96749
2023-01-13T16:10:07.000Z,96747
2023-01-13T16:14:52.000Z,96762
2023-01-13T16:19:52.000Z,96764
2023-01-13T16:25:07.000Z,96766
2023-01-13T16:30:07.000Z,96786
2023-01-13T16:35:07.000Z,96817
2023-01-13T16:40:07.000Z,96820
2023-01-13T16:44:52.000Z,96832
2023-01-13T16:49:52.000Z,96846
2023-01-13T16:54:52.000Z,96856
2023-01-13T17:00:07.000Z,96860
2023-01-13T17:05:07.000Z,96854
2023-01-13T17:09:52.000Z,96868
2023-01-13T17:14:52.000Z,96875
2023-01-13T17:19:52.000Z,96872
2023-01-13T17:24:52.000Z,96880
2023-01-13T17:30:07.000Z,96884
2023-01-13T17:35:07.000Z,96884
2023-01-13T17:39:52.000Z,96900
2023-01-13T17:44:52.000Z,96881
2023-01-13T17:49:52.000Z,96888
2023-01-13T17:54:52.000Z,96897
2023-01-13T18:00:07.000Z,96905
2023-01-13T18:04:52.000Z,96912
2023-01-13T18:09:52.000Z,96921
2023-01-13T18:14:52.000Z,96918
2023-01-13T18:19:52.000Z,96923
2023-01-13T18:25:07.000Z,96928
2023-01-13T18:30:07.000Z,96936
2023-01-13T18:34:52.000Z,96941
2023-01-13T18:39:52.000Z,96946
2023-01-13T18:45:07.000Z,96948
2023-01-13T18:49:52.000Z,96960
2023-01-13T18:55:07.000Z,96963
2023-01-13T19:00:07.000Z,96970
2023-01-13T19:04:52.000Z,96975
2023-01-13T19:09:52.000Z,96994
2023-01-13T19:14:52.000Z,96995
2023-01-13T19:20:07.000Z,96998
2023-01-13T19:25:07.000Z,97001
2023-01-13T19:30:07.000Z,97014
2023-01-13T19:34:52.000Z,97007
2023-01-13T19:39:52.000Z,97015
2023-01-13T19:45:07.000Z,97022
2023-01-13T19:50:07.000Z,97023
2023-01-13T19:55:07.000Z,97030
2023-01-13T20:00:07.000Z,97041
2023-01-13T20:04:52.000Z,97039
2023-01-13T20:09:52.000Z,97045
2023-01-13T20:15:07.000Z,97031
2023-01-13T20:20:07.000Z,97035
2023-01-13T20:25:07.000Z,97031
2023-01-13T20:30:07.000Z,97029
2023-01-13T20:34:52.000Z,97035
2023-01-13T20:39:52.000Z,97038
2023-01-13T20:44:52.000Z,97045
2023-01-13T20:50:07.000Z,97070
2023-01-13T20:55:07.000Z,97070
2023-01-13T20:59:52.000Z,97079
2023-01-13T21:04:52.000Z,97072
2023-01-13T21:10:07.000Z,97083
2023-01-13T21:15:07.000Z,97094
2023-01-13T21:20:07.000Z,97097
2023-01-13T21:24:52.000Z,97099
2023-01-13T21:29:52.000Z,97089
2023-01-13T21:35:07.000Z,97096
2023-01-13T21:40:07.000Z,97103
2023-01-13T21:45:07.000Z,97099
2023-01-13T21:50:07.000Z,97103
2023-01-13T21:54:52.000Z,97099
2023-01-13T21:59:52.000Z,97097
2023-01-13T22:05:07.000Z,97117
2023-01-13T22:10:07.000Z,97115
2023-01-13T22:15:07.000Z,97116
2023-01-13T22:19:52.000Z,97120
2023-01-13T22:25:07.000Z,97136
2023-01-13T22:30:07.000Z,97135
2023-01-13T22:35:07.000Z,97126
2023-01-13T22:40:07.000Z,97132
2023-01-13T22:45:07.000Z,97128
2023-01-13T22:49:52.000Z,97134
2023-01-13T22:54:52.000Z,97139
2023-01-13T23:00:07.000Z,97134
2023-01-13T23:05:07.000Z,97114
2023-01-13T23:10:07.000Z,97121
2023-01-13T23:14:52.000Z,97125
2023-01-13T23:20:07.000Z,97126
2023-01-13T23:24:52.000Z,97124
2023-01-13T23:29:52.000Z,97123
2023-01-13T23:35:07.000Z,97121
2023-01-13T23:40:07.000Z,97101
2023-01-13T23:44:52.000Z,97100
2023-01-13T23:49:52.000Z,97108
2023-01-13T23:55:07.000Z,97109
